Time;durP1;ratioP1;P1;durP2;ratioP2;P2;SDS_P1;SDS_P2;PMS_P1;PMS_P2;Temp;Humidity;BMP_temperature;BMP_pressure;BME280_temperature;BME280_humidity;BME280_pressure;Samples;Min_cycle;Max_cycle;Signal;HPM_P1;HPM_P2
2021/11/25 00:01:46;;;;;;;34.90;31.33;;;1.10;99.90;;;;;;5080369;28;20464;-68
2021/11/25 00:04:13;;;;;;;36.33;32.60;;;1.20;99.90;;;;;;5083044;28;20514;-68
2021/11/25 00:06:40;;;;;;;36.50;32.90;;;1.20;99.90;;;;;;5077194;28;20473;-69
2021/11/25 00:09:07;;;;;;;35.83;32.63;;;1.20;99.90;;;;;;5081483;28;20484;-68
2021/11/25 00:11:35;;;;;;;35.33;32.10;;;1.30;99.90;;;;;;5081849;28;20469;-68
2021/11/25 00:14:02;;;;;;;36.27;32.80;;;1.20;99.90;;;;;;5085306;28;20812;-68
2021/11/25 00:16:29;;;;;;;38.87;35.07;;;1.30;99.90;;;;;;5077242;28;20468;-68
2021/11/25 00:18:58;;;;;;;36.17;32.93;;;1.30;99.90;;;;;;5093231;28;20462;-69
2021/11/25 00:21:25;;;;;;;34.80;31.73;;;1.40;99.90;;;;;;5086320;28;20453;-69
2021/11/25 00:23:53;;;;;;;36.60;33.20;;;1.40;99.90;;;;;;5083558;28;20468;-68
2021/11/25 00:26:20;;;;;;;35.93;32.53;;;1.40;99.90;;;;;;5076052;28;20580;-68
2021/11/25 00:28:47;;;;;;;35.90;32.53;;;1.40;99.90;;;;;;5084079;28;20485;-68
2021/11/25 00:31:14;;;;;;;36.20;32.60;;;1.30;99.90;;;;;;5079775;28;20476;-68
2021/11/25 00:33:41;;;;;;;34.47;31.03;;;1.30;99.90;;;;;;5081329;28;21010;-68
2021/11/25 00:36:09;;;;;;;36.20;32.60;;;1.40;99.90;;;;;;5088446;28;20453;-68
2021/11/25 00:38:36;;;;;;;36.27;32.80;;;1.40;99.90;;;;;;5082893;28;20469;-68
2021/11/25 00:41:03;;;;;;;37.03;33.43;;;1.40;99.90;;;;;;5077861;28;20463;-68
2021/11/25 00:43:31;;;;;;;36.77;33.10;;;1.50;99.90;;;;;;5085513;28;21083;-68
2021/11/25 00:45:58;;;;;;;38.57;34.87;;;1.60;99.90;;;;;;5080363;28;20821;-68
2021/11/25 00:48:25;;;;;;;38.97;34.67;;;1.60;99.90;;;;;;5084053;28;20458;-68
2021/11/25 00:50:52;;;;;;;38.60;34.83;;;1.70;99.90;;;;;;5079500;28;20995;-68
2021/11/25 00:53:20;;;;;;;40.73;34.17;;;1.70;99.90;;;;;;5080484;28;20961;-68
2021/11/25 00:55:47;;;;;;;35.13;31.60;;;1.60;99.90;;;;;;5085579;28;20466;-68
2021/11/25 00:58:15;;;;;;;36.47;32.97;;;1.70;99.90;;;;;;5085736;28;20823;-68
2021/11/25 01:00:42;;;;;;;35.47;32.27;;;1.80;99.90;;;;;;5082467;28;20854;-68
2021/11/25 01:03:09;;;;;;;35.13;32.00;;;1.90;99.90;;;;;;5078956;28;20458;-68
2021/11/25 01:05:36;;;;;;;35.40;31.87;;;1.90;99.90;;;;;;5083554;28;20471;-68
2021/11/25 01:08:03;;;;;;;36.40;32.87;;;2.00;99.90;;;;;;5081821;28;20458;-68
2021/11/25 01:10:32;;;;;;;35.00;31.30;;;1.90;99.90;;;;;;5079907;28;21015;-68
2021/11/25 01:13:00;;;;;;;35.90;32.60;;;1.90;99.90;;;;;;5080254;28;20462;-68
2021/11/25 01:15:32;;;;;;;35.50;32.30;;;1.90;99.90;;;;;;5078241;28;20470;-68
2021/11/25 01:18:01;;;;;;;35.03;31.77;;;1.90;99.90;;;;;;5080626;28;20471;-68
2021/11/25 01:20:29;;;;;;;36.63;32.90;;;1.80;99.90;;;;;;5078188;28;20457;-68
2021/11/25 01:22:58;;;;;;;36.30;32.43;;;1.80;99.90;;;;;;5078333;28;20474;-68
2021/11/25 01:25:25;;;;;;;35.17;31.97;;;1.80;99.90;;;;;;5085168;28;20854;-68
2021/11/25 01:27:53;;;;;;;36.00;32.80;;;1.80;99.90;;;;;;5080485;28;20885;-68
2021/11/25 01:30:21;;;;;;;35.40;32.30;;;1.70;99.90;;;;;;5080018;28;20495;-68
2021/11/25 01:32:48;;;;;;;34.70;31.60;;;1.70;99.90;;;;;;5072513;28;20471;-68
2021/11/25 01:35:15;;;;;;;36.43;32.93;;;1.60;99.90;;;;;;5079723;28;20550;-68
2021/11/25 01:37:43;;;;;;;36.63;32.97;;;1.50;99.90;;;;;;5074969;28;20470;-68
2021/11/25 01:40:13;;;;;;;36.23;32.73;;;1.50;99.90;;;;;;5085548;28;20493;-68
2021/11/25 01:42:41;;;;;;;37.70;33.80;;;1.40;99.90;;;;;;5076917;28;20872;-68
2021/11/25 01:45:10;;;;;;;35.93;32.57;;;1.40;99.90;;;;;;5075310;28;20964;-68
2021/11/25 01:47:41;;;;;;;36.57;33.17;;;1.40;99.90;;;;;;5076432;28;20465;-68
2021/11/25 01:50:08;;;;;;;37.20;33.70;;;1.40;99.90;;;;;;5081862;28;20493;-68
2021/11/25 01:52:35;;;;;;;35.60;32.40;;;1.50;99.90;;;;;;5082527;28;20465;-68
2021/11/25 01:55:02;;;;;;;36.73;33.00;;;1.50;99.90;;;;;;5078013;28;20469;-68
2021/11/25 01:57:30;;;;;;;37.10;33.60;;;1.60;99.90;;;;;;5078317;28;20482;-68
2021/11/25 01:59:57;;;;;;;37.00;33.60;;;1.70;99.90;;;;;;5079548;28;20961;-68
2021/11/25 02:02:26;;;;;;;36.17;33.00;;;1.70;99.90;;;;;;5083775;28;20461;-68
2021/11/25 02:04:53;;;;;;;33.90;30.57;;;1.80;99.90;;;;;;5079349;28;20514;-68
2021/11/25 02:07:20;;;;;;;36.13;32.63;;;1.80;99.90;;;;;;5079131;28;20816;-68
2021/11/25 02:09:47;;;;;;;36.30;33.10;;;1.70;99.90;;;;;;5081566;28;20485;-68
2021/11/25 02:12:14;;;;;;;37.87;33.80;;;1.70;99.90;;;;;;5073974;28;20466;-68
2021/11/25 02:14:41;;;;;;;35.93;32.43;;;1.80;99.90;;;;;;5082181;28;21076;-67
2021/11/25 02:17:08;;;;;;;36.00;32.67;;;1.90;99.90;;;;;;5086238;28;20592;-68
2021/11/25 02:19:37;;;;;;;36.50;32.90;;;1.90;99.90;;;;;;5082566;28;20548;-68
2021/11/25 02:22:06;;;;;;;39.40;32.80;;;1.80;99.90;;;;;;5080064;28;20469;-68
2021/11/25 02:24:33;;;;;;;36.60;33.00;;;1.70;99.90;;;;;;5070861;28;20458;-68
2021/11/25 02:27:00;;;;;;;35.07;32.03;;;1.70;99.90;;;;;;5081598;28;21221;-68
2021/11/25 02:29:26;;;;;;;36.27;31.93;;;1.80;99.90;;;;;;5081175;28;20466;-68
2021/11/25 02:31:54;;;;;;;37.80;33.10;;;1.90;99.90;;;;;;5077037;28;20451;-68
2021/11/25 02:34:21;;;;;;;35.57;32.27;;;1.90;99.90;;;;;;5080987;28;20845;-68
2021/11/25 02:36:49;;;;;;;35.80;32.20;;;1.90;99.90;;;;;;5074797;28;20864;-68
2021/11/25 02:39:19;;;;;;;38.37;34.80;;;2.00;99.90;;;;;;5079561;28;20973;-68
2021/11/25 02:41:47;;;;;;;38.20;34.37;;;2.10;99.90;;;;;;5079196;28;20465;-69
2021/11/25 02:44:13;;;;;;;35.20;32.03;;;2.20;99.90;;;;;;5078495;28;20599;-68
2021/11/25 02:46:40;;;;;;;35.37;31.70;;;2.10;99.90;;;;;;5079202;28;20951;-68
2021/11/25 02:49:07;;;;;;;36.73;33.10;;;2.20;99.90;;;;;;5079097;28;20519;-68
2021/11/25 02:51:35;;;;;;;35.73;32.10;;;2.20;99.90;;;;;;5082103;28;20493;-68
2021/11/25 02:54:03;;;;;;;38.37;34.10;;;2.20;99.90;;;;;;5071655;28;20476;-68
2021/11/25 02:56:32;;;;;;;34.33;30.93;;;2.20;99.90;;;;;;5087553;28;20470;-68
2021/11/25 02:59:00;;;;;;;35.07;31.80;;;2.30;99.90;;;;;;5082318;28;20454;-68
2021/11/25 03:01:29;;;;;;;36.80;33.20;;;2.30;99.90;;;;;;5076611;28;20454;-68
2021/11/25 03:03:57;;;;;;;35.47;32.23;;;2.30;99.90;;;;;;5078463;28;20458;-68
2021/11/25 03:06:24;;;;;;;36.33;32.67;;;2.30;99.90;;;;;;5079899;28;20994;-68
2021/11/25 03:08:52;;;;;;;37.13;32.50;;;2.30;99.90;;;;;;5073801;28;20466;-68
2021/11/25 03:11:21;;;;;;;39.20;33.67;;;2.30;99.90;;;;;;5083741;28;20482;-68
2021/11/25 03:13:51;;;;;;;34.83;31.47;;;2.30;99.90;;;;;;5078634;28;20872;-68
2021/11/25 03:16:20;;;;;;;35.57;31.77;;;2.30;99.90;;;;;;5083485;28;20648;-68
2021/11/25 03:18:47;;;;;;;34.80;31.70;;;2.30;99.90;;;;;;5082574;28;20458;-68
2021/11/25 03:21:15;;;;;;;35.70;31.90;;;2.30;99.90;;;;;;5082193;28;20554;-68
2021/11/25 03:23:44;;;;;;;35.13;31.50;;;2.30;99.90;;;;;;5083643;28;20466;-68
2021/11/25 03:26:11;;;;;;;40.43;33.07;;;2.30;99.90;;;;;;5075532;28;20467;-68
2021/11/25 03:28:43;;;;;;;39.53;32.60;;;2.30;99.90;;;;;;5079944;28;20485;-68
2021/11/25 03:31:11;;;;;;;36.70;32.20;;;2.30;99.90;;;;;;5081254;28;20531;-68
2021/11/25 03:33:39;;;;;;;34.77;31.57;;;2.20;99.90;;;;;;5080009;28;20469;-68
2021/11/25 03:36:08;;;;;;;37.37;32.03;;;2.20;99.90;;;;;;5085369;28;22425;-68
2021/11/25 03:38:36;;;;;;;33.47;30.30;;;2.10;99.90;;;;;;5082656;28;20458;-68
2021/11/25 03:41:03;;;;;;;34.40;31.00;;;2.00;99.90;;;;;;5076136;28;20469;-68
2021/11/25 03:43:30;;;;;;;36.93;32.90;;;1.80;99.90;;;;;;5077476;28;20487;-68
2021/11/25 03:45:57;;;;;;;36.10;32.63;;;1.70;99.90;;;;;;5078880;28;20465;-68
2021/11/25 03:48:29;;;;;;;39.43;33.63;;;1.60;99.90;;;;;;5079356;28;20461;-68
2021/11/25 03:50:57;;;;;;;37.50;33.57;;;1.40;99.90;;;;;;5081724;28;20482;-68
2021/11/25 03:53:24;;;;;;;35.10;31.90;;;1.30;99.90;;;;;;5079194;28;20475;-68
2021/11/25 03:55:52;;;;;;;36.60;32.90;;;1.10;99.90;;;;;;5076873;28;20544;-68
2021/11/25 03:58:19;;;;;;;37.70;32.40;;;1.00;99.90;;;;;;5076259;28;20490;-68
2021/11/25 04:00:46;;;;;;;35.43;32.00;;;0.90;99.90;;;;;;5082195;28;20524;-68
2021/11/25 04:03:13;;;;;;;39.03;35.00;;;0.80;99.90;;;;;;5086745;28;21085;-68
2021/11/25 04:05:42;;;;;;;40.27;36.30;;;0.80;99.90;;;;;;5081984;28;20489;-68
2021/11/25 04:08:08;;;;;;;37.50;34.00;;;0.90;99.90;;;;;;5083096;28;20552;-68
2021/11/25 04:10:36;;;;;;;38.20;34.30;;;0.90;99.90;;;;;;5085989;28;21013;-68
2021/11/25 04:13:03;;;;;;;35.20;31.53;;;1.00;99.90;;;;;;5079310;28;20468;-68
2021/11/25 04:15:30;;;;;;;35.50;32.07;;;0.90;99.90;;;;;;5084460;28;20460;-68
2021/11/25 04:17:57;;;;;;;35.50;32.07;;;0.80;99.90;;;;;;5087699;28;20462;-68
2021/11/25 04:20:24;;;;;;;36.97;33.03;;;0.70;99.90;;;;;;5075425;28;20503;-68
2021/11/25 04:22:52;;;;;;;36.60;33.00;;;0.50;99.90;;;;;;5078757;28;20469;-68
2021/11/25 04:25:19;;;;;;;36.03;32.73;;;0.40;99.90;;;;;;5073923;28;20459;-68
2021/11/25 04:27:47;;;;;;;36.67;33.07;;;0.30;99.90;;;;;;5084224;28;20470;-68
2021/11/25 04:30:25;;;;;;;37.47;33.40;;;0.20;99.90;;;;;;5078812;28;20465;-68
2021/11/25 04:35:37;;;;;;;37.63;33.90;;;0.20;99.90;;;;;;5077328;28;20513;-68
2021/11/25 04:38:08;;;;;;;38.30;34.23;;;0.10;99.90;;;;;;5083225;28;21037;-70
2021/11/25 04:40:37;;;;;;;37.50;33.47;;;0.10;99.90;;;;;;5071398;28;20989;-70
2021/11/25 04:43:07;;;;;;;37.30;33.23;;;0.00;99.90;;;;;;5085998;28;20900;-70
2021/11/25 04:45:34;;;;;;;37.57;33.33;;;0.00;99.90;;;;;;5082406;28;20943;-70
2021/11/25 04:48:01;;;;;;;37.97;34.20;;;0.10;99.90;;;;;;5081017;28;20460;-69
2021/11/25 04:50:29;;;;;;;38.50;34.47;;;0.10;99.90;;;;;;5079418;28;20867;-69
2021/11/25 04:52:56;;;;;;;40.43;36.03;;;0.20;99.90;;;;;;5081453;28;20467;-67
2021/11/25 04:55:25;;;;;;;41.57;37.37;;;0.20;99.90;;;;;;5084927;28;20502;-67
2021/11/25 04:57:53;;;;;;;41.60;36.47;;;0.20;99.90;;;;;;5084611;28;20505;-68
2021/11/25 05:00:21;;;;;;;39.77;35.63;;;0.10;99.90;;;;;;5077598;28;20470;-68
2021/11/25 05:02:48;;;;;;;45.20;38.37;;;0.10;99.90;;;;;;5081293;28;20466;-68
2021/11/25 05:05:15;;;;;;;53.33;38.97;;;0.00;99.90;;;;;;5079159;28;20970;-68
2021/11/25 05:07:42;;;;;;;42.00;35.33;;;0.00;99.90;;;;;;5082734;28;20467;-70
2021/11/25 05:10:11;;;;;;;37.33;33.50;;;0.00;99.90;;;;;;5077037;28;20457;-71
2021/11/25 05:12:40;;;;;;;36.67;32.93;;;0.00;99.90;;;;;;5078861;28;20574;-70
2021/11/25 05:15:09;;;;;;;37.67;33.87;;;0.00;99.90;;;;;;5086389;28;20829;-70
2021/11/25 05:17:37;;;;;;;41.03;35.00;;;0.10;99.90;;;;;;5081508;28;20979;-70
2021/11/25 05:20:06;;;;;;;38.43;34.57;;;0.10;99.90;;;;;;5078560;28;20473;-70
2021/11/25 05:22:33;;;;;;;40.90;36.67;;;0.20;99.90;;;;;;5084013;28;21019;-70
2021/11/25 05:25:00;;;;;;;38.23;34.07;;;0.20;99.90;;;;;;5082590;28;20478;-70
2021/11/25 05:27:27;;;;;;;41.43;35.40;;;0.30;99.90;;;;;;5077591;28;20502;-71
2021/11/25 05:29:55;;;;;;;40.37;35.20;;;0.10;99.90;;;;;;5083466;28;20467;-71
2021/11/25 05:32:22;;;;;;;41.10;36.83;;;0.10;99.90;;;;;;5078017;28;20496;-71
2021/11/25 05:34:49;;;;;;;43.83;37.23;;;0.10;99.90;;;;;;5081941;28;20492;-70
2021/11/25 05:37:17;;;;;;;41.40;37.27;;;0.10;99.90;;;;;;5086082;28;20467;-70
2021/11/25 05:39:44;;;;;;;48.17;37.87;;;0.00;99.90;;;;;;5084492;28;20991;-71
2021/11/25 05:42:12;;;;;;;45.97;35.77;;;0.00;99.90;;;;;;5080502;28;20468;-70
2021/11/25 05:44:40;;;;;;;39.90;34.73;;;0.00;99.90;;;;;;5080204;28;20922;-70
2021/11/25 05:47:09;;;;;;;58.60;42.07;;;-0.10;99.90;;;;;;5082103;28;20555;-71
2021/11/25 05:49:36;;;;;;;71.83;43.10;;;-0.20;99.90;;;;;;5083251;28;20467;-69
2021/11/25 05:52:03;;;;;;;71.10;47.80;;;-0.30;99.90;;;;;;5084928;28;20527;-68
2021/11/25 05:54:31;;;;;;;54.87;42.20;;;-0.20;99.90;;;;;;5080884;28;20821;-68
2021/11/25 05:56:58;;;;;;;47.20;42.10;;;-0.10;99.90;;;;;;5077534;28;20498;-68
2021/11/25 05:59:25;;;;;;;67.87;44.23;;;-0.10;99.90;;;;;;5079746;28;20458;-69
2021/11/25 06:01:51;;;;;;;81.10;50.20;;;-0.10;99.90;;;;;;5081793;28;20508;-69
2021/11/25 06:04:20;;;;;;;64.03;45.60;;;-0.20;99.90;;;;;;5084685;28;20461;-69
2021/11/25 06:06:47;;;;;;;59.00;42.80;;;-0.10;99.90;;;;;;5083195;28;20826;-70
2021/11/25 06:09:13;;;;;;;74.00;46.40;;;-0.20;99.90;;;;;;5078701;28;20977;-69
2021/11/25 06:11:40;;;;;;;53.67;43.33;;;-0.20;99.90;;;;;;5076594;28;20489;-69
2021/11/25 06:14:07;;;;;;;53.33;43.70;;;-0.20;99.90;;;;;;5081292;28;20459;-69
2021/11/25 06:16:35;;;;;;;65.47;46.50;;;-0.10;99.90;;;;;;5080639;28;20460;-71
2021/11/25 06:19:01;;;;;;;70.60;49.50;;;-0.20;99.90;;;;;;5085044;28;21005;-71
2021/11/25 06:21:29;;;;;;;70.23;47.43;;;-0.30;99.90;;;;;;5080901;28;20471;-71
2021/11/25 06:23:57;;;;;;;96.33;51.10;;;-0.40;99.90;;;;;;5078353;28;20469;-70
2021/11/25 06:26:24;;;;;;;86.03;51.17;;;-0.40;99.90;;;;;;5076905;28;20464;-71
2021/11/25 06:28:54;;;;;;;60.13;43.80;;;-0.30;99.90;;;;;;5077958;28;20467;-71
2021/11/25 06:31:22;;;;;;;70.97;44.67;;;-0.30;99.90;;;;;;5081175;28;20542;-71
2021/11/25 06:33:49;;;;;;;54.33;39.50;;;-0.30;99.90;;;;;;5083682;28;20477;-71
2021/11/25 06:36:17;;;;;;;46.30;40.43;;;-0.30;99.90;;;;;;5081435;28;20464;-70
2021/11/25 06:38:45;;;;;;;66.50;44.83;;;-0.30;99.90;;;;;;5076853;28;20450;-71
2021/11/25 06:41:12;;;;;;;51.53;41.80;;;-0.20;99.90;;;;;;5082310;28;20471;-71
2021/11/25 06:43:39;;;;;;;46.43;39.90;;;-0.20;99.90;;;;;;5075216;28;20483;-69
2021/11/25 06:46:06;;;;;;;47.73;37.50;;;-0.30;99.90;;;;;;5079254;28;20858;-69
2021/11/25 06:48:32;;;;;;;40.83;36.63;;;-0.50;99.90;;;;;;5084067;28;20449;-69
2021/11/25 06:50:59;;;;;;;44.40;34.47;;;-0.60;99.90;;;;;;5078644;28;20457;-68
2021/11/25 06:53:26;;;;;;;40.37;36.07;;;-0.70;99.90;;;;;;5078339;28;20463;-69
2021/11/25 06:55:54;;;;;;;42.33;37.40;;;-0.90;99.90;;;;;;5082441;28;20465;-69
2021/11/25 06:58:21;;;;;;;43.30;38.57;;;-0.90;99.90;;;;;;5086323;28;20476;-69
2021/11/25 07:00:49;;;;;;;45.27;39.17;;;-0.90;99.90;;;;;;5078387;28;20457;-69
2021/11/25 07:03:16;;;;;;;48.90;38.40;;;-0.90;99.90;;;;;;5077982;28;20989;-69
2021/11/25 07:05:43;;;;;;;44.00;39.40;;;-0.90;99.90;;;;;;5082031;28;20461;-69
2021/11/25 07:08:10;;;;;;;44.20;39.30;;;-0.80;99.90;;;;;;5088049;28;20957;-69
2021/11/25 07:10:37;;;;;;;46.53;39.50;;;-0.80;99.90;;;;;;5080958;28;20469;-69
2021/11/25 07:13:05;;;;;;;43.23;38.57;;;-0.70;99.90;;;;;;5076994;28;20489;-69
2021/11/25 07:15:32;;;;;;;44.33;39.57;;;-0.80;99.90;;;;;;5075519;28;20492;-69
2021/11/25 07:17:59;;;;;;;44.50;39.80;;;-0.90;99.90;;;;;;5079278;28;20468;-69
2021/11/25 07:20:26;;;;;;;50.73;41.50;;;-0.90;99.90;;;;;;5079122;28;20459;-69
2021/11/25 07:22:53;;;;;;;49.10;41.87;;;-0.90;99.90;;;;;;5082463;28;20443;-69
2021/11/25 07:25:21;;;;;;;48.53;38.57;;;-0.90;99.90;;;;;;5082709;28;20461;-69
2021/11/25 07:27:48;;;;;;;44.60;38.60;;;-0.80;99.90;;;;;;5075516;28;20527;-69
2021/11/25 07:30:18;;;;;;;47.77;40.30;;;-0.60;99.90;;;;;;5074924;28;20465;-69
2021/11/25 07:32:46;;;;;;;50.73;38.70;;;-0.60;99.90;;;;;;5084533;28;20511;-69
2021/11/25 07:35:14;;;;;;;45.53;38.43;;;-0.50;99.90;;;;;;5080510;28;20548;-69
2021/11/25 07:37:41;;;;;;;51.00;41.50;;;-0.60;99.90;;;;;;5085195;28;20495;-70
2021/11/25 07:40:09;;;;;;;44.60;39.77;;;-0.60;99.90;;;;;;5087916;28;20540;-70
2021/11/25 07:42:36;;;;;;;42.53;37.70;;;-0.70;99.90;;;;;;5080783;28;20465;-69
2021/11/25 07:45:05;;;;;;;59.97;40.63;;;-0.80;99.90;;;;;;5077692;28;20548;-70
2021/11/25 07:47:34;;;;;;;49.77;38.47;;;-0.80;99.90;;;;;;5088201;28;20959;-69
2021/11/25 07:50:03;;;;;;;48.50;40.67;;;-0.90;99.90;;;;;;5088250;28;20465;-69
2021/11/25 07:52:30;;;;;;;46.20;39.07;;;-0.90;99.90;;;;;;5085445;28;20491;-69
2021/11/25 07:54:57;;;;;;;47.50;38.87;;;-0.90;99.90;;;;;;5080822;28;20458;-69
2021/11/25 07:57:26;;;;;;;44.87;39.20;;;-0.80;99.90;;;;;;5085612;28;20464;-70
2021/11/25 07:59:53;;;;;;;48.40;39.63;;;-0.80;99.90;;;;;;5082235;28;20542;-69
2021/11/25 08:02:20;;;;;;;50.40;40.00;;;-0.70;99.90;;;;;;5086753;28;20458;-70
2021/11/25 08:04:49;;;;;;;53.30;41.60;;;-0.70;99.90;;;;;;5086967;28;20540;-70
2021/11/25 08:07:17;;;;;;;51.33;41.20;;;-0.60;99.90;;;;;;5089803;28;20474;-69
2021/11/25 08:09:44;;;;;;;47.63;41.07;;;-0.60;99.90;;;;;;5081131;28;20958;-70
2021/11/25 08:12:11;;;;;;;55.17;41.87;;;-0.50;99.90;;;;;;5081529;28;20531;-69
2021/11/25 08:14:39;;;;;;;50.10;40.67;;;-0.50;99.90;;;;;;5079186;28;20457;-69
2021/11/25 08:17:08;;;;;;;51.17;40.20;;;-0.40;99.90;;;;;;5088834;28;20542;-69
2021/11/25 08:19:35;;;;;;;64.10;43.27;;;-0.40;99.90;;;;;;5084405;28;20501;-69
2021/11/25 08:22:04;;;;;;;51.20;41.90;;;-0.30;99.90;;;;;;5078982;28;20563;-69
2021/11/25 08:24:31;;;;;;;53.37;41.10;;;-0.30;99.90;;;;;;5081805;28;20458;-69
2021/11/25 08:26:58;;;;;;;56.10;40.53;;;-0.20;99.90;;;;;;5083139;28;20470;-69
2021/11/25 08:29:24;;;;;;;49.53;41.57;;;-0.20;99.90;;;;;;5075457;28;20468;-69
2021/11/25 08:31:51;;;;;;;57.83;41.97;;;-0.10;99.90;;;;;;5074138;28;20496;-69
2021/11/25 08:34:19;;;;;;;46.17;39.47;;;0.00;99.90;;;;;;5082637;28;20490;-69
2021/11/25 08:36:46;;;;;;;56.43;41.90;;;0.20;99.90;;;;;;5076024;28;20560;-69
2021/11/25 08:39:14;;;;;;;49.30;41.50;;;0.40;99.90;;;;;;5076652;28;20465;-69
2021/11/25 08:41:41;;;;;;;49.60;41.40;;;0.70;99.90;;;;;;5074758;28;20886;-69
2021/11/25 08:44:08;;;;;;;47.77;42.57;;;0.80;99.90;;;;;;5074757;28;21011;-68
2021/11/25 08:46:35;;;;;;;58.10;46.00;;;1.00;99.90;;;;;;5078401;28;20462;-68
2021/11/25 08:49:01;;;;;;;52.67;45.80;;;1.30;99.90;;;;;;5078112;28;20469;-69
2021/11/25 08:51:29;;;;;;;70.90;51.70;;;1.60;99.90;;;;;;5075388;28;20941;-71
2021/11/25 08:53:57;;;;;;;74.20;53.17;;;1.80;99.90;;;;;;5070129;28;20467;-68
2021/11/25 08:56:25;;;;;;;64.53;51.47;;;1.80;99.90;;;;;;5074278;28;20474;-68
2021/11/25 08:58:52;;;;;;;68.37;51.67;;;1.80;99.90;;;;;;5081337;28;20461;-69
2021/11/25 09:01:19;;;;;;;63.63;51.77;;;1.70;99.90;;;;;;5078996;28;20896;-68
2021/11/25 09:03:46;;;;;;;68.23;53.30;;;1.70;99.90;;;;;;5079413;28;20461;-68
2021/11/25 09:06:14;;;;;;;57.90;47.17;;;1.80;99.90;;;;;;5080985;28;20473;-68
2021/11/25 09:08:41;;;;;;;71.53;52.00;;;2.00;99.90;;;;;;5078195;28;20458;-68
2021/11/25 09:11:08;;;;;;;64.17;48.63;;;2.10;99.90;;;;;;5080978;28;20475;-68
2021/11/25 09:13:36;;;;;;;53.50;46.40;;;2.30;99.90;;;;;;5083293;28;20493;-68
2021/11/25 09:16:03;;;;;;;58.07;46.87;;;2.50;99.90;;;;;;5078684;28;20863;-68
2021/11/25 09:18:30;;;;;;;57.57;46.50;;;2.50;99.90;;;;;;5072028;28;20897;-68
2021/11/25 09:20:57;;;;;;;57.97;47.90;;;2.60;99.90;;;;;;5068044;28;21033;-68
2021/11/25 09:23:24;;;;;;;56.70;46.23;;;2.60;99.90;;;;;;5077129;28;20842;-68
2021/11/25 09:25:52;;;;;;;54.43;43.70;;;2.60;99.90;;;;;;5077106;28;20465;-68
2021/11/25 09:28:23;;;;;;;60.43;44.50;;;2.70;99.90;;;;;;5077131;28;20473;-68
2021/11/25 09:30:52;;;;;;;54.17;44.30;;;2.80;99.90;;;;;;5073080;28;20466;-68
2021/11/25 09:33:20;;;;;;;58.60;45.60;;;2.80;99.90;;;;;;5076641;28;20493;-68
2021/11/25 09:35:49;;;;;;;62.73;46.00;;;2.80;99.90;;;;;;5071410;28;20462;-67
2021/11/25 09:38:16;;;;;;;55.00;43.40;;;2.90;99.90;;;;;;5077595;28;20457;-68
2021/11/25 09:40:46;;;;;;;54.33;43.10;;;2.90;99.90;;;;;;5075014;28;20458;-67
2021/11/25 09:43:20;;;;;;;54.83;41.83;;;2.80;99.90;;;;;;5078364;28;20489;-67
2021/11/25 09:45:49;;;;;;;54.03;43.40;;;2.70;99.90;;;;;;5078088;28;20493;-67
2021/11/25 09:48:18;;;;;;;48.57;43.33;;;2.70;99.90;;;;;;5074860;28;20498;-67
2021/11/25 09:50:49;;;;;;;57.53;44.03;;;2.90;99.90;;;;;;5074757;28;20447;-68
2021/11/25 09:53:18;;;;;;;60.27;43.20;;;3.00;99.90;;;;;;5077027;28;20933;-67
2021/11/25 09:55:48;;;;;;;53.90;43.60;;;3.00;99.90;;;;;;5077978;28;20967;-67
2021/11/25 09:58:16;;;;;;;55.40;44.20;;;3.00;99.90;;;;;;5071129;28;20457;-68
2021/11/25 10:00:44;;;;;;;56.70;43.20;;;2.80;99.90;;;;;;5071956;28;20471;-67
2021/11/25 10:03:15;;;;;;;60.73;44.87;;;3.00;99.90;;;;;;5077239;28;20472;-67
2021/11/25 10:05:46;;;;;;;49.13;40.63;;;3.10;99.90;;;;;;5070279;28;20470;-68
2021/11/25 10:08:29;;;;;;;61.63;44.67;;;3.20;99.90;;;;;;5081385;28;20485;-68
2021/11/25 10:11:07;;;;;;;53.60;42.40;;;3.30;99.90;;;;;;5075965;28;21045;-67
2021/11/25 10:13:45;;;;;;;52.43;42.87;;;3.30;99.90;;;;;;5073725;28;20492;-67
2021/11/25 10:16:14;;;;;;;49.67;40.60;;;3.40;99.90;;;;;;5077899;28;20474;-67
2021/11/25 10:18:42;;;;;;;54.90;43.87;;;3.40;99.90;;;;;;5072811;28;20544;-70
2021/11/25 10:21:14;;;;;;;57.10;41.67;;;3.60;99.90;;;;;;5076773;28;20858;-69
2021/11/25 10:23:41;;;;;;;54.57;41.80;;;3.60;99.90;;;;;;5076221;28;21066;-70
2021/11/25 10:26:11;;;;;;;54.53;42.03;;;3.90;99.90;;;;;;5077589;28;20473;-70
2021/11/25 10:28:42;;;;;;;50.43;41.73;;;3.90;99.90;;;;;;5074868;28;20545;-70
2021/11/25 10:31:13;;;;;;;49.43;42.57;;;3.90;99.90;;;;;;5076841;28;20461;-70
2021/11/25 10:33:49;;;;;;;52.40;43.07;;;3.90;99.90;;;;;;5071601;28;20572;-70
2021/11/25 10:39:33;;;;;;;53.57;41.47;;;3.80;99.90;;;;;;5075020;28;20507;-70
2021/11/25 10:42:03;;;;;;;50.60;40.30;;;3.90;99.90;;;;;;5072810;28;20879;-70
2021/11/25 10:44:33;;;;;;;55.43;43.60;;;3.90;99.90;;;;;;5073438;28;20539;-70
2021/11/25 10:47:05;;;;;;;57.40;41.27;;;3.80;99.90;;;;;;5072503;28;20462;-70
2021/11/25 10:49:35;;;;;;;55.43;43.63;;;3.70;99.90;;;;;;5075688;28;20531;-70
2021/11/25 10:52:09;;;;;;;58.97;44.33;;;3.80;99.90;;;;;;5072654;28;20462;-68
2021/11/25 10:54:42;;;;;;;55.00;43.53;;;3.90;99.90;;;;;;5073593;28;20459;-68
2021/11/25 10:57:08;;;;;;;59.90;44.27;;;4.00;99.90;;;;;;5076658;28;20458;-68
2021/11/25 10:59:37;;;;;;;56.57;42.23;;;4.20;99.90;;;;;;5077411;28;20463;-68
2021/11/25 11:02:20;;;;;;;58.07;45.67;;;4.00;99.90;;;;;;5075438;28;20735;-69
2021/11/25 11:04:48;;;;;;;60.10;44.30;;;4.30;99.90;;;;;;5074214;28;20459;-68
2021/11/25 11:07:25;;;;;;;60.90;45.63;;;4.10;99.90;;;;;;5070279;28;20480;-68
2021/11/25 11:09:53;;;;;;;57.07;43.70;;;4.30;99.90;;;;;;5073694;28;20465;-68
2021/11/25 11:12:26;;;;;;;57.97;46.37;;;4.60;99.90;;;;;;5072975;28;20490;-68
2021/11/25 11:14:56;;;;;;;58.70;42.20;;;4.90;99.90;;;;;;5076927;28;20461;-68
2021/11/25 11:17:31;;;;;;;57.57;44.90;;;4.70;99.90;;;;;;5082938;28;20739;-71
2021/11/25 11:20:16;;;;;;;57.93;45.80;;;4.80;99.90;;;;;;5079037;28;20457;-68
2021/11/25 11:22:53;;;;;;;62.97;45.40;;;4.90;99.90;;;;;;5079136;28;20841;-68
2021/11/25 11:25:21;;;;;;;55.97;44.67;;;5.00;99.90;;;;;;5074602;28;20462;-70
2021/11/25 11:27:51;;;;;;;58.00;45.83;;;5.00;99.90;;;;;;5076609;28;20977;-70
2021/11/25 11:30:17;;;;;;;54.50;43.40;;;4.90;99.90;;;;;;5081149;28;20462;-70
2021/11/25 11:32:45;;;;;;;55.93;46.00;;;4.90;99.90;;;;;;5082029;28;20478;-70
2021/11/25 11:35:13;;;;;;;57.17;45.20;;;4.80;99.90;;;;;;5078417;28;20459;-70
2021/11/25 11:37:41;;;;;;;61.50;45.60;;;4.90;99.90;;;;;;5082499;28;20983;-70
2021/11/25 11:40:11;;;;;;;56.57;44.10;;;4.90;99.90;;;;;;5078768;28;20861;-70
2021/11/25 11:42:38;;;;;;;53.87;46.80;;;4.90;99.90;;;;;;5076906;28;20470;-70
2021/11/25 11:45:06;;;;;;;51.30;44.20;;;4.90;99.90;;;;;;5071506;28;20826;-70
2021/11/25 11:47:34;;;;;;;57.73;45.00;;;4.90;99.90;;;;;;5080774;28;20462;-70
2021/11/25 11:50:05;;;;;;;58.40;46.80;;;5.00;99.90;;;;;;5080094;28;20789;-71
2021/11/25 11:52:33;;;;;;;52.50;43.50;;;5.20;99.90;;;;;;5072558;28;20469;-70
2021/11/25 11:55:02;;;;;;;57.00;44.40;;;5.30;99.90;;;;;;5079193;28;20458;-71
2021/11/25 11:57:43;;;;;;;53.17;45.43;;;5.50;99.90;;;;;;5075404;28;20470;-71
2021/11/25 12:00:34;;;;;;;48.60;42.50;;;5.50;99.90;;;;;;5079596;28;20456;-70
2021/11/25 12:03:01;;;;;;;56.37;46.53;;;5.30;99.90;;;;;;5078793;28;20864;-71
2021/11/25 12:05:51;;;;;;;65.53;46.77;;;5.10;99.90;;;;;;5077716;28;20632;-71
2021/11/25 12:08:43;;;;;;;55.27;45.40;;;5.30;99.90;;;;;;5079622;28;20937;-71
2021/11/25 12:11:12;;;;;;;58.20;44.93;;;5.50;99.90;;;;;;5081625;28;20468;-71
2021/11/25 12:14:03;;;;;;;53.10;44.10;;;5.50;99.90;;;;;;5082803;28;20582;-71
2021/11/25 12:16:32;;;;;;;60.57;46.40;;;5.60;99.90;;;;;;5079879;28;20519;-71
2021/11/25 12:19:00;;;;;;;55.33;45.50;;;5.70;99.90;;;;;;5081853;28;20964;-70
2021/11/25 12:21:40;;;;;;;50.47;43.23;;;5.70;99.90;;;;;;5075108;28;20540;-70
2021/11/25 12:24:19;;;;;;;55.80;43.17;;;5.60;99.90;;;;;;5073528;28;20495;-71
2021/11/25 12:27:05;;;;;;;60.93;44.80;;;5.70;99.90;;;;;;5073973;28;20454;-70
2021/11/25 12:29:47;;;;;;;64.70;49.00;;;5.70;99.90;;;;;;5078691;28;20466;-70
2021/11/25 12:32:37;;;;;;;61.70;47.73;;;5.80;99.90;;;;;;5078391;28;20464;-70
2021/11/25 12:35:40;;;;;;;61.40;47.50;;;5.90;99.90;;;;;;5080126;28;20473;-70
2021/11/25 12:38:11;;;;;;;59.93;49.27;;;5.90;99.90;;;;;;5081278;28;20469;-70
2021/11/25 12:41:00;;;;;;;56.70;46.73;;;5.90;99.90;;;;;;5081733;28;21633;-70
2021/11/25 12:43:30;;;;;;;61.57;49.17;;;5.70;99.90;;;;;;5081782;28;20482;-70
2021/11/25 12:46:03;;;;;;;61.30;51.57;;;5.70;99.90;;;;;;5079903;28;20458;-70
2021/11/25 12:48:32;;;;;;;56.90;49.47;;;5.80;99.90;;;;;;5079393;28;20462;-70
2021/11/25 12:51:03;;;;;;;68.10;50.23;;;5.70;99.90;;;;;;5077092;28;20458;-67